sensor_id;sensor_type;location;lat;lon;timestamp;temperature;humidity
47616;DHT22;69146;52.266;7.000;2024-01-11T00:01:36;-4.90;99.90
47616;DHT22;69146;52.266;7.000;2024-01-11T00:04:20;-5.00;99.90
47616;DHT22;69146;52.266;7.000;2024-01-11T00:07:05;-5.10;99.90
47616;DHT22;69146;52.266;7.000;2024-01-11T00:09:49;-5.10;99.90
47616;DHT22;69146;52.266;7.000;2024-01-11T00:12:35;-5.00;99.90
47616;DHT22;69146;52.266;7.000;2024-01-11T00:15:19;-5.10;99.90
47616;DHT22;69146;52.266;7.000;2024-01-11T00:18:04;-5.10;99.90
47616;DHT22;69146;52.266;7.000;2024-01-11T00:20:50;-5.10;99.90
47616;DHT22;69146;52.266;7.000;2024-01-11T00:23:35;-5.20;99.90
47616;DHT22;69146;52.266;7.000;2024-01-11T00:26:20;-5.20;99.90
47616;DHT22;69146;52.266;7.000;2024-01-11T00:29:05;-5.20;99.90
47616;DHT22;69146;52.266;7.000;2024-01-11T00:31:51;-5.20;99.90
47616;DHT22;69146;52.266;7.000;2024-01-11T00:34:35;-5.20;99.90
47616;DHT22;69146;52.266;7.000;2024-01-11T00:37:20;-5.20;99.90
47616;DHT22;69146;52.266;7.000;2024-01-11T00:40:05;-5.20;99.90
47616;DHT22;69146;52.266;7.000;2024-01-11T00:42:50;-5.30;99.90
47616;DHT22;69146;52.266;7.000;2024-01-11T00:45:35;-5.30;99.90
47616;DHT22;69146;52.266;7.000;2024-01-11T00:48:20;-5.30;99.90
47616;DHT22;69146;52.266;7.000;2024-01-11T00:51:05;-5.40;99.90
47616;DHT22;69146;52.266;7.000;2024-01-11T00:53:49;-5.40;99.90
47616;DHT22;69146;52.266;7.000;2024-01-11T00:56:34;-5.40;99.90
47616;DHT22;69146;52.266;7.000;2024-01-11T00:59:18;-5.40;99.90
47616;DHT22;69146;52.266;7.000;2024-01-11T01:02:04;-5.40;99.90
47616;DHT22;69146;52.266;7.000;2024-01-11T01:04:49;-5.40;99.90
47616;DHT22;69146;52.266;7.000;2024-01-11T01:07:33;-5.40;99.90
47616;DHT22;69146;52.266;7.000;2024-01-11T01:10:18;-5.40;99.90
47616;DHT22;69146;52.266;7.000;2024-01-11T01:13:02;-5.50;99.90
47616;DHT22;69146;52.266;7.000;2024-01-11T01:15:47;-5.60;99.90
47616;DHT22;69146;52.266;7.000;2024-01-11T01:18:33;-5.60;99.90
47616;DHT22;69146;52.266;7.000;2024-01-11T01:21:17;-5.70;99.90
47616;DHT22;69146;52.266;7.000;2024-01-11T01:24:02;-5.70;99.90
47616;DHT22;69146;52.266;7.000;2024-01-11T01:26:46;-5.70;99.90
47616;DHT22;69146;52.266;7.000;2024-01-11T01:29:31;-5.70;99.90
47616;DHT22;69146;52.266;7.000;2024-01-11T01:32:15;-5.70;99.90
47616;DHT22;69146;52.266;7.000;2024-01-11T01:35:01;-5.70;99.90
47616;DHT22;69146;52.266;7.000;2024-01-11T01:37:46;-5.80;99.90
47616;DHT22;69146;52.266;7.000;2024-01-11T01:40:30;-5.70;99.90
47616;DHT22;69146;52.266;7.000;2024-01-11T01:43:16;-5.70;99.90
47616;DHT22;69146;52.266;7.000;2024-01-11T01:46:00;-5.80;99.90
47616;DHT22;69146;52.266;7.000;2024-01-11T01:48:45;-5.70;99.90
47616;DHT22;69146;52.266;7.000;2024-01-11T01:51:31;-5.80;99.90
47616;DHT22;69146;52.266;7.000;2024-01-11T01:54:16;-5.80;99.90
47616;DHT22;69146;52.266;7.000;2024-01-11T01:57:01;-5.80;99.90
47616;DHT22;69146;52.266;7.000;2024-01-11T01:59:47;-5.80;99.90
47616;DHT22;69146;52.266;7.000;2024-01-11T02:02:34;-5.80;99.90
47616;DHT22;69146;52.266;7.000;2024-01-11T02:05:18;-5.80;99.90
47616;DHT22;69146;52.266;7.000;2024-01-11T02:08:05;-5.90;99.90
47616;DHT22;69146;52.266;7.000;2024-01-11T02:10:52;-5.90;99.90
47616;DHT22;69146;52.266;7.000;2024-01-11T02:13:37;-5.90;99.90
47616;DHT22;69146;52.266;7.000;2024-01-11T02:16:21;-5.90;99.90
47616;DHT22;69146;52.266;7.000;2024-01-11T02:19:05;-5.90;99.90
47616;DHT22;69146;52.266;7.000;2024-01-11T02:21:51;-5.90;99.90
47616;DHT22;69146;52.266;7.000;2024-01-11T02:24:38;-5.90;99.90
47616;DHT22;69146;52.266;7.000;2024-01-11T02:27:23;-5.80;99.90
47616;DHT22;69146;52.266;7.000;2024-01-11T02:30:08;-5.90;99.90
47616;DHT22;69146;52.266;7.000;2024-01-11T02:32:53;-5.90;99.90
47616;DHT22;69146;52.266;7.000;2024-01-11T02:35:38;-5.90;99.90
47616;DHT22;69146;52.266;7.000;2024-01-11T02:38:23;-6.00;99.90
47616;DHT22;69146;52.266;7.000;2024-01-11T02:41:09;-6.00;99.90
47616;DHT22;69146;52.266;7.000;2024-01-11T02:43:54;-5.90;99.90
47616;DHT22;69146;52.266;7.000;2024-01-11T02:46:38;-6.00;99.90
47616;DHT22;69146;52.266;7.000;2024-01-11T02:49:23;-6.10;99.90
47616;DHT22;69146;52.266;7.000;2024-01-11T02:52:07;-6.10;99.90
47616;DHT22;69146;52.266;7.000;2024-01-11T02:54:52;-6.00;99.90
47616;DHT22;69146;52.266;7.000;2024-01-11T02:57:37;-6.10;99.90
47616;DHT22;69146;52.266;7.000;2024-01-11T03:00:22;-6.10;99.90
47616;DHT22;69146;52.266;7.000;2024-01-11T03:03:06;-6.10;99.90
47616;DHT22;69146;52.266;7.000;2024-01-11T03:05:51;-6.10;99.90
47616;DHT22;69146;52.266;7.000;2024-01-11T03:08:35;-6.20;99.90
47616;DHT22;69146;52.266;7.000;2024-01-11T03:11:20;-6.20;99.90
47616;DHT22;69146;52.266;7.000;2024-01-11T03:14:05;-6.20;99.90
47616;DHT22;69146;52.266;7.000;2024-01-11T03:16:51;-6.10;99.90
47616;DHT22;69146;52.266;7.000;2024-01-11T03:19:38;-6.20;99.90
47616;DHT22;69146;52.266;7.000;2024-01-11T03:22:23;-6.20;99.90
47616;DHT22;69146;52.266;7.000;2024-01-11T03:25:08;-6.10;99.90
47616;DHT22;69146;52.266;7.000;2024-01-11T03:27:52;-6.20;99.90
47616;DHT22;69146;52.266;7.000;2024-01-11T03:30:38;-6.20;99.90
47616;DHT22;69146;52.266;7.000;2024-01-11T03:33:22;-6.30;99.90
47616;DHT22;69146;52.266;7.000;2024-01-11T03:36:07;-6.30;99.90
47616;DHT22;69146;52.266;7.000;2024-01-11T03:38:51;-6.30;99.90
47616;DHT22;69146;52.266;7.000;2024-01-11T03:41:36;-6.30;99.90
47616;DHT22;69146;52.266;7.000;2024-01-11T03:44:20;-6.20;99.90
47616;DHT22;69146;52.266;7.000;2024-01-11T03:47:06;-6.20;99.90
47616;DHT22;69146;52.266;7.000;2024-01-11T03:49:51;-6.20;99.90
47616;DHT22;69146;52.266;7.000;2024-01-11T03:52:36;-6.30;99.90
47616;DHT22;69146;52.266;7.000;2024-01-11T03:55:20;-6.30;99.90
47616;DHT22;69146;52.266;7.000;2024-01-11T03:58:05;-6.30;99.90
47616;DHT22;69146;52.266;7.000;2024-01-11T04:00:49;-6.40;99.90
47616;DHT22;69146;52.266;7.000;2024-01-11T04:03:34;-6.40;99.90
47616;DHT22;69146;52.266;7.000;2024-01-11T04:06:19;-6.30;99.90
47616;DHT22;69146;52.266;7.000;2024-01-11T04:09:05;-6.30;99.90
47616;DHT22;69146;52.266;7.000;2024-01-11T04:11:49;-6.20;99.90
47616;DHT22;69146;52.266;7.000;2024-01-11T04:14:37;-6.20;99.90
47616;DHT22;69146;52.266;7.000;2024-01-11T04:17:21;-6.30;99.90
47616;DHT22;69146;52.266;7.000;2024-01-11T04:20:08;-6.30;99.90
47616;DHT22;69146;52.266;7.000;2024-01-11T04:22:52;-6.30;99.90
47616;DHT22;69146;52.266;7.000;2024-01-11T04:25:37;-6.30;99.90
47616;DHT22;69146;52.266;7.000;2024-01-11T04:28:22;-6.40;99.90
47616;DHT22;69146;52.266;7.000;2024-01-11T04:31:07;-6.40;99.90
47616;DHT22;69146;52.266;7.000;2024-01-11T04:33:52;-6.30;99.90
47616;DHT22;69146;52.266;7.000;2024-01-11T04:36:38;-6.40;99.90
47616;DHT22;69146;52.266;7.000;2024-01-11T04:39:23;-6.40;99.90
47616;DHT22;69146;52.266;7.000;2024-01-11T04:42:07;-6.30;99.90
47616;DHT22;69146;52.266;7.000;2024-01-11T04:44:52;-6.40;99.90
47616;DHT22;69146;52.266;7.000;2024-01-11T04:47:36;-6.40;99.90
47616;DHT22;69146;52.266;7.000;2024-01-11T04:50:22;-6.40;99.90
47616;DHT22;69146;52.266;7.000;2024-01-11T04:53:08;-6.30;99.90
47616;DHT22;69146;52.266;7.000;2024-01-11T04:55:52;-6.30;99.90
47616;DHT22;69146;52.266;7.000;2024-01-11T04:58:39;-6.30;99.90
47616;DHT22;69146;52.266;7.000;2024-01-11T05:01:24;-6.30;99.90
47616;DHT22;69146;52.266;7.000;2024-01-11T05:04:08;-6.30;99.90
47616;DHT22;69146;52.266;7.000;2024-01-11T05:06:52;-6.30;99.90
47616;DHT22;69146;52.266;7.000;2024-01-11T05:09:38;-6.40;99.90
47616;DHT22;69146;52.266;7.000;2024-01-11T05:12:22;-6.40;99.90
47616;DHT22;69146;52.266;7.000;2024-01-11T05:15:07;-6.40;99.90
47616;DHT22;69146;52.266;7.000;2024-01-11T05:17:54;-6.40;99.90
47616;DHT22;69146;52.266;7.000;2024-01-11T05:20:39;-6.40;99.90
47616;DHT22;69146;52.266;7.000;2024-01-11T05:23:24;-6.40;99.90
47616;DHT22;69146;52.266;7.000;2024-01-11T05:26:09;-6.40;99.90
47616;DHT22;69146;52.266;7.000;2024-01-11T05:28:54;-6.40;99.90
47616;DHT22;69146;52.266;7.000;2024-01-11T05:31:39;-6.40;99.90
47616;DHT22;69146;52.266;7.000;2024-01-11T05:34:23;-6.40;99.90
47616;DHT22;69146;52.266;7.000;2024-01-11T05:37:07;-6.40;99.90
47616;DHT22;69146;52.266;7.000;2024-01-11T05:39:52;-6.30;99.90
47616;DHT22;69146;52.266;7.000;2024-01-11T05:42:40;-6.30;99.90
47616;DHT22;69146;52.266;7.000;2024-01-11T05:45:24;-6.30;99.90
47616;DHT22;69146;52.266;7.000;2024-01-11T05:48:09;-6.40;99.90
47616;DHT22;69146;52.266;7.000;2024-01-11T05:50:54;-6.40;99.90
47616;DHT22;69146;52.266;7.000;2024-01-11T05:53:39;-6.40;99.90
47616;DHT22;69146;52.266;7.000;2024-01-11T05:56:23;-6.30;99.90
47616;DHT22;69146;52.266;7.000;2024-01-11T05:59:09;-6.30;99.90
47616;DHT22;69146;52.266;7.000;2024-01-11T06:01:53;-6.30;99.90
47616;DHT22;69146;52.266;7.000;2024-01-11T06:04:38;-6.40;99.90
47616;DHT22;69146;52.266;7.000;2024-01-11T06:07:22;-6.40;99.90
47616;DHT22;69146;52.266;7.000;2024-01-11T06:10:07;-6.40;99.90
47616;DHT22;69146;52.266;7.000;2024-01-11T06:12:52;-6.40;99.90
47616;DHT22;69146;52.266;7.000;2024-01-11T06:15:41;-6.40;99.90
47616;DHT22;69146;52.266;7.000;2024-01-11T06:18:26;-6.40;99.90
47616;DHT22;69146;52.266;7.000;2024-01-11T06:21:11;-6.40;99.90
47616;DHT22;69146;52.266;7.000;2024-01-11T06:23:55;-6.40;99.90
47616;DHT22;69146;52.266;7.000;2024-01-11T06:26:40;-6.40;99.90
47616;DHT22;69146;52.266;7.000;2024-01-11T06:29:24;-6.50;99.90
47616;DHT22;69146;52.266;7.000;2024-01-11T06:32:10;-6.40;99.90
47616;DHT22;69146;52.266;7.000;2024-01-11T06:34:56;-6.40;99.90
47616;DHT22;69146;52.266;7.000;2024-01-11T06:37:41;-6.40;99.90
47616;DHT22;69146;52.266;7.000;2024-01-11T06:40:25;-6.50;99.90
47616;DHT22;69146;52.266;7.000;2024-01-11T06:43:10;-6.50;99.90
47616;DHT22;69146;52.266;7.000;2024-01-11T06:45:54;-6.50;99.90
47616;DHT22;69146;52.266;7.000;2024-01-11T06:48:40;-6.50;99.90
47616;DHT22;69146;52.266;7.000;2024-01-11T06:51:24;-6.50;99.90
47616;DHT22;69146;52.266;7.000;2024-01-11T06:54:09;-6.50;99.90
47616;DHT22;69146;52.266;7.000;2024-01-11T06:56:53;-6.50;99.90
47616;DHT22;69146;52.266;7.000;2024-01-11T06:59:38;-6.50;99.90
47616;DHT22;69146;52.266;7.000;2024-01-11T07:02:22;-6.40;99.90
47616;DHT22;69146;52.266;7.000;2024-01-11T07:05:08;-6.40;99.90
47616;DHT22;69146;52.266;7.000;2024-01-11T07:07:53;-6.40;99.90
47616;DHT22;69146;52.266;7.000;2024-01-11T07:10:37;-6.40;99.90
47616;DHT22;69146;52.266;7.000;2024-01-11T07:13:22;-6.40;99.90
47616;DHT22;69146;52.266;7.000;2024-01-11T07:16:06;-6.40;99.90
47616;DHT22;69146;52.266;7.000;2024-01-11T07:18:52;-6.40;99.90
47616;DHT22;69146;52.266;7.000;2024-01-11T07:21:38;-6.40;99.90
47616;DHT22;69146;52.266;7.000;2024-01-11T07:24:23;-6.40;99.90
47616;DHT22;69146;52.266;7.000;2024-01-11T07:27:07;-6.40;99.90
47616;DHT22;69146;52.266;7.000;2024-01-11T07:29:52;-6.40;99.90
47616;DHT22;69146;52.266;7.000;2024-01-11T07:32:36;-6.30;99.90
47616;DHT22;69146;52.266;7.000;2024-01-11T07:35:21;-6.40;99.90
47616;DHT22;69146;52.266;7.000;2024-01-11T07:38:07;-6.40;99.90
47616;DHT22;69146;52.266;7.000;2024-01-11T07:40:51;-6.40;99.90
47616;DHT22;69146;52.266;7.000;2024-01-11T07:43:35;-6.40;99.90
47616;DHT22;69146;52.266;7.000;2024-01-11T07:46:20;-6.40;99.90
47616;DHT22;69146;52.266;7.000;2024-01-11T07:49:05;-6.40;99.90
47616;DHT22;69146;52.266;7.000;2024-01-11T07:51:50;-6.40;99.90
47616;DHT22;69146;52.266;7.000;2024-01-11T07:54:35;-6.40;99.90
47616;DHT22;69146;52.266;7.000;2024-01-11T07:57:20;-6.40;99.90
47616;DHT22;69146;52.266;7.000;2024-01-11T08:00:05;-6.40;99.90
47616;DHT22;69146;52.266;7.000;2024-01-11T08:02:50;-6.40;99.90
47616;DHT22;69146;52.266;7.000;2024-01-11T08:05:35;-6.40;99.90
47616;DHT22;69146;52.266;7.000;2024-01-11T08:08:19;-6.30;99.90
47616;DHT22;69146;52.266;7.000;2024-01-11T08:11:04;-6.30;99.90
47616;DHT22;69146;52.266;7.000;2024-01-11T08:13:49;-6.20;99.90
47616;DHT22;69146;52.266;7.000;2024-01-11T08:16:34;-6.20;99.90
47616;DHT22;69146;52.266;7.000;2024-01-11T08:19:18;-6.30;99.90
47616;DHT22;69146;52.266;7.000;2024-01-11T08:22:03;-6.30;99.90
47616;DHT22;69146;52.266;7.000;2024-01-11T08:24:48;-6.20;99.90
47616;DHT22;69146;52.266;7.000;2024-01-11T08:27:33;-6.10;99.90
47616;DHT22;69146;52.266;7.000;2024-01-11T08:30:18;-6.10;99.90
47616;DHT22;69146;52.266;7.000;2024-01-11T08:33:02;-6.10;99.90
47616;DHT22;69146;52.266;7.000;2024-01-11T08:35:48;-6.10;99.90
47616;DHT22;69146;52.266;7.000;2024-01-11T08:38:32;-6.00;99.90
47616;DHT22;69146;52.266;7.000;2024-01-11T08:41:17;-6.00;99.90
47616;DHT22;69146;52.266;7.000;2024-01-11T08:44:02;-6.00;99.90
47616;DHT22;69146;52.266;7.000;2024-01-11T08:46:47;-6.00;99.90
47616;DHT22;69146;52.266;7.000;2024-01-11T08:49:32;-5.90;99.90
47616;DHT22;69146;52.266;7.000;2024-01-11T08:52:16;-5.80;99.90
47616;DHT22;69146;52.266;7.000;2024-01-11T08:55:01;-5.60;99.90
47616;DHT22;69146;52.266;7.000;2024-01-11T08:57:46;-5.50;99.90
47616;DHT22;69146;52.266;7.000;2024-01-11T09:00:32;-5.30;99.90
47616;DHT22;69146;52.266;7.000;2024-01-11T09:03:16;-5.10;99.90
47616;DHT22;69146;52.266;7.000;2024-01-11T09:06:02;-5.00;99.90
47616;DHT22;69146;52.266;7.000;2024-01-11T09:08:46;-4.80;99.90
47616;DHT22;69146;52.266;7.000;2024-01-11T09:11:31;-4.70;99.90
47616;DHT22;69146;52.266;7.000;2024-01-11T09:14:16;-4.60;99.90
47616;DHT22;69146;52.266;7.000;2024-01-11T09:17:03;-4.60;99.90
47616;DHT22;69146;52.266;7.000;2024-01-11T09:19:50;-4.50;99.90
47616;DHT22;69146;52.266;7.000;2024-01-11T09:22:35;-4.50;99.90
47616;DHT22;69146;52.266;7.000;2024-01-11T09:25:19;-4.40;99.90
47616;DHT22;69146;52.266;7.000;2024-01-11T09:28:04;-4.30;99.90
47616;DHT22;69146;52.266;7.000;2024-01-11T09:30:48;-4.10;99.90
47616;DHT22;69146;52.266;7.000;2024-01-11T09:33:35;-4.10;99.90
47616;DHT22;69146;52.266;7.000;2024-01-11T09:36:20;-4.00;99.90
47616;DHT22;69146;52.266;7.000;2024-01-11T09:39:04;-4.00;99.90
47616;DHT22;69146;52.266;7.000;2024-01-11T09:41:51;-3.90;99.90
47616;DHT22;69146;52.266;7.000;2024-01-11T09:44:37;-3.90;99.90
47616;DHT22;69146;52.266;7.000;2024-01-11T09:47:24;-3.80;99.90
47616;DHT22;69146;52.266;7.000;2024-01-11T09:50:10;-3.60;99.90
47616;DHT22;69146;52.266;7.000;2024-01-11T09:52:55;-3.50;99.90
47616;DHT22;69146;52.266;7.000;2024-01-11T09:55:39;-3.50;99.90
47616;DHT22;69146;52.266;7.000;2024-01-11T09:58:23;-3.50;99.90
47616;DHT22;69146;52.266;7.000;2024-01-11T10:01:09;-3.40;99.90
47616;DHT22;69146;52.266;7.000;2024-01-11T10:03:54;-3.40;99.90
47616;DHT22;69146;52.266;7.000;2024-01-11T10:06:40;-3.30;99.90
47616;DHT22;69146;52.266;7.000;2024-01-11T10:09:26;-3.20;99.90
47616;DHT22;69146;52.266;7.000;2024-01-11T10:12:11;-3.10;99.90
47616;DHT22;69146;52.266;7.000;2024-01-11T10:14:55;-3.00;99.90
47616;DHT22;69146;52.266;7.000;2024-01-11T10:17:48;-2.90;99.90
47616;DHT22;69146;52.266;7.000;2024-01-11T10:20:33;-2.90;99.90
47616;DHT22;69146;52.266;7.000;2024-01-11T10:23:19;-2.90;99.90
47616;DHT22;69146;52.266;7.000;2024-01-11T10:26:03;-2.90;99.90
47616;DHT22;69146;52.266;7.000;2024-01-11T10:28:47;-2.90;99.90
47616;DHT22;69146;52.266;7.000;2024-01-11T10:34:18;-2.80;99.90
47616;DHT22;69146;52.266;7.000;2024-01-11T10:37:04;-2.60;99.90
47616;DHT22;69146;52.266;7.000;2024-01-11T10:39:50;-2.50;99.90
47616;DHT22;69146;52.266;7.000;2024-01-11T10:42:35;-2.50;99.90
47616;DHT22;69146;52.266;7.000;2024-01-11T10:45:21;-2.40;99.90
47616;DHT22;69146;52.266;7.000;2024-01-11T10:48:06;-2.30;99.90
47616;DHT22;69146;52.266;7.000;2024-01-11T10:50:54;-2.20;99.90
47616;DHT22;69146;52.266;7.000;2024-01-11T10:53:41;-2.20;99.90
47616;DHT22;69146;52.266;7.000;2024-01-11T10:56:27;-2.10;99.90
47616;DHT22;69146;52.266;7.000;2024-01-11T10:59:12;-1.90;99.90
47616;DHT22;69146;52.266;7.000;2024-01-11T11:01:58;-1.90;99.90
47616;DHT22;69146;52.266;7.000;2024-01-11T11:04:47;-1.80;99.90
47616;DHT22;69146;52.266;7.000;2024-01-11T11:07:33;-1.90;99.90
47616;DHT22;69146;52.266;7.000;2024-01-11T11:10:18;-1.80;99.90
47616;DHT22;69146;52.266;7.000;2024-01-11T11:13:04;-1.70;99.90
47616;DHT22;69146;52.266;7.000;2024-01-11T11:15:50;-1.70;99.90
47616;DHT22;69146;52.266;7.000;2024-01-11T11:18:35;-1.60;99.90
47616;DHT22;69146;52.266;7.000;2024-01-11T11:21:22;-1.60;99.90
47616;DHT22;69146;52.266;7.000;2024-01-11T11:24:08;-1.50;99.90
47616;DHT22;69146;52.266;7.000;2024-01-11T11:26:53;-1.40;99.90
47616;DHT22;69146;52.266;7.000;2024-01-11T11:29:43;-1.30;99.90
47616;DHT22;69146;52.266;7.000;2024-01-11T11:32:37;-1.20;99.90
47616;DHT22;69146;52.266;7.000;2024-01-11T11:35:22;-1.20;99.90
47616;DHT22;69146;52.266;7.000;2024-01-11T11:38:06;-1.10;99.90
47616;DHT22;69146;52.266;7.000;2024-01-11T11:40:52;-1.10;99.90
47616;DHT22;69146;52.266;7.000;2024-01-11T11:43:38;-1.00;99.90
47616;DHT22;69146;52.266;7.000;2024-01-11T11:46:25;-1.00;99.90
47616;DHT22;69146;52.266;7.000;2024-01-11T11:49:09;-0.90;99.90
47616;DHT22;69146;52.266;7.000;2024-01-11T11:51:55;-0.80;99.90
47616;DHT22;69146;52.266;7.000;2024-01-11T11:54:40;-0.80;99.90
47616;DHT22;69146;52.266;7.000;2024-01-11T11:57:25;-0.70;99.90
47616;DHT22;69146;52.266;7.000;2024-01-11T12:00:12;-0.70;99.90
47616;DHT22;69146;52.266;7.000;2024-01-11T12:02:58;-0.60;99.90
47616;DHT22;69146;52.266;7.000;2024-01-11T12:05:44;-0.60;99.90
47616;DHT22;69146;52.266;7.000;2024-01-11T12:08:28;-0.50;99.90
47616;DHT22;69146;52.266;7.000;2024-01-11T12:11:13;-0.50;99.90
47616;DHT22;69146;52.266;7.000;2024-01-11T12:13:58;-0.40;99.90
47616;DHT22;69146;52.266;7.000;2024-01-11T12:16:42;-0.40;99.90
47616;DHT22;69146;52.266;7.000;2024-01-11T12:19:28;-0.40;99.90
47616;DHT22;69146;52.266;7.000;2024-01-11T12:22:13;-0.40;99.90
47616;DHT22;69146;52.266;7.000;2024-01-11T12:24:57;-0.30;99.90
47616;DHT22;69146;52.266;7.000;2024-01-11T12:27:42;-0.30;99.90
47616;DHT22;69146;52.266;7.000;2024-01-11T12:30:27;-0.30;99.90
47616;DHT22;69146;52.266;7.000;2024-01-11T12:33:11;-0.30;99.90
47616;DHT22;69146;52.266;7.000;2024-01-11T12:35:57;-0.30;99.90
47616;DHT22;69146;52.266;7.000;2024-01-11T12:38:46;-0.20;99.90
47616;DHT22;69146;52.266;7.000;2024-01-11T12:41:30;-0.20;99.90
47616;DHT22;69146;52.266;7.000;2024-01-11T12:44:14;-0.20;99.90
47616;DHT22;69146;52.266;7.000;2024-01-11T12:46:58;-0.20;99.90
47616;DHT22;69146;52.266;7.000;2024-01-11T12:49:43;-0.20;99.90
47616;DHT22;69146;52.266;7.000;2024-01-11T12:52:31;-0.20;99.90
47616;DHT22;69146;52.266;7.000;2024-01-11T12:55:17;-0.20;99.90
47616;DHT22;69146;52.266;7.000;2024-01-11T12:58:06;-0.10;99.90
47616;DHT22;69146;52.266;7.000;2024-01-11T13:00:51;-0.10;99.90
47616;DHT22;69146;52.266;7.000;2024-01-11T13:03:37;-0.10;99.90
47616;DHT22;69146;52.266;7.000;2024-01-11T13:06:21;-0.10;99.90
47616;DHT22;69146;52.266;7.000;2024-01-11T13:09:07;-0.10;99.90
47616;DHT22;69146;52.266;7.000;2024-01-11T13:11:52;-0.10;99.90
47616;DHT22;69146;52.266;7.000;2024-01-11T13:14:37;0.00;99.90
47616;DHT22;69146;52.266;7.000;2024-01-11T13:17:23;0.00;99.90
47616;DHT22;69146;52.266;7.000;2024-01-11T13:20:08;0.00;99.90
47616;DHT22;69146;52.266;7.000;2024-01-11T13:25:56;0.20;99.90
47616;DHT22;69146;52.266;7.000;2024-01-11T13:28:40;0.10;99.90
47616;DHT22;69146;52.266;7.000;2024-01-11T13:31:25;0.10;99.90
47616;DHT22;69146;52.266;7.000;2024-01-11T13:34:09;0.10;99.90
47616;DHT22;69146;52.266;7.000;2024-01-11T13:36:54;0.10;99.90
47616;DHT22;69146;52.266;7.000;2024-01-11T13:39:38;0.10;99.90
47616;DHT22;69146;52.266;7.000;2024-01-11T13:42:24;0.10;99.90
47616;DHT22;69146;52.266;7.000;2024-01-11T13:45:09;0.10;99.90
47616;DHT22;69146;52.266;7.000;2024-01-11T13:47:53;0.20;99.90
47616;DHT22;69146;52.266;7.000;2024-01-11T13:50:43;0.20;99.90
47616;DHT22;69146;52.266;7.000;2024-01-11T13:53:27;0.10;99.90
47616;DHT22;69146;52.266;7.000;2024-01-11T13:56:12;0.00;99.90
47616;DHT22;69146;52.266;7.000;2024-01-11T13:58:57;0.10;99.90
47616;DHT22;69146;52.266;7.000;2024-01-11T14:01:42;0.10;99.90
47616;DHT22;69146;52.266;7.000;2024-01-11T14:04:26;0.00;99.90
47616;DHT22;69146;52.266;7.000;2024-01-11T14:07:11;0.00;99.90
47616;DHT22;69146;52.266;7.000;2024-01-11T14:09:55;0.00;99.90
47616;DHT22;69146;52.266;7.000;2024-01-11T14:12:40;0.00;99.90
47616;DHT22;69146;52.266;7.000;2024-01-11T14:15:26;-0.10;99.90
47616;DHT22;69146;52.266;7.000;2024-01-11T14:18:11;-0.10;99.90
47616;DHT22;69146;52.266;7.000;2024-01-11T14:20:55;-0.10;99.90
47616;DHT22;69146;52.266;7.000;2024-01-11T14:23:40;-0.10;99.90
47616;DHT22;69146;52.266;7.000;2024-01-11T14:26:24;-0.10;99.90
47616;DHT22;69146;52.266;7.000;2024-01-11T14:29:09;-0.10;99.90
47616;DHT22;69146;52.266;7.000;2024-01-11T14:31:56;-0.10;99.90
47616;DHT22;69146;52.266;7.000;2024-01-11T14:34:41;-0.10;99.90
47616;DHT22;69146;52.266;7.000;2024-01-11T14:37:26;0.00;99.90
47616;DHT22;69146;52.266;7.000;2024-01-11T14:40:10;0.00;99.90
47616;DHT22;69146;52.266;7.000;2024-01-11T14:42:55;0.00;99.90
47616;DHT22;69146;52.266;7.000;2024-01-11T14:45:40;0.00;99.90
47616;DHT22;69146;52.266;7.000;2024-01-11T14:48:25;0.00;99.90
47616;DHT22;69146;52.266;7.000;2024-01-11T14:51:10;0.00;99.90
47616;DHT22;69146;52.266;7.000;2024-01-11T14:53:55;-0.10;99.90
47616;DHT22;69146;52.266;7.000;2024-01-11T14:56:39;-0.10;99.90
47616;DHT22;69146;52.266;7.000;2024-01-11T14:59:24;-0.20;99.90
47616;DHT22;69146;52.266;7.000;2024-01-11T15:02:08;-0.20;99.90
47616;DHT22;69146;52.266;7.000;2024-01-11T15:04:54;-0.20;99.90
47616;DHT22;69146;52.266;7.000;2024-01-11T15:07:39;-0.20;99.90
47616;DHT22;69146;52.266;7.000;2024-01-11T15:10:24;-0.20;99.90
47616;DHT22;69146;52.266;7.000;2024-01-11T15:13:09;-0.20;99.90
47616;DHT22;69146;52.266;7.000;2024-01-11T15:15:54;-0.20;99.90
47616;DHT22;69146;52.266;7.000;2024-01-11T15:18:39;-0.20;99.90
47616;DHT22;69146;52.266;7.000;2024-01-11T15:21:25;-0.20;99.90
47616;DHT22;69146;52.266;7.000;2024-01-11T15:24:09;-0.20;99.90
47616;DHT22;69146;52.266;7.000;2024-01-11T15:26:53;-0.20;99.90
47616;DHT22;69146;52.266;7.000;2024-01-11T15:29:38;-0.20;99.90
47616;DHT22;69146;52.266;7.000;2024-01-11T15:32:25;-0.20;99.90
47616;DHT22;69146;52.266;7.000;2024-01-11T15:35:09;-0.20;99.90
47616;DHT22;69146;52.266;7.000;2024-01-11T15:37:57;-0.20;99.90
47616;DHT22;69146;52.266;7.000;2024-01-11T15:40:41;-0.20;99.90
47616;DHT22;69146;52.266;7.000;2024-01-11T15:43:26;-0.20;99.90
47616;DHT22;69146;52.266;7.000;2024-01-11T15:46:10;-0.20;99.90
47616;DHT22;69146;52.266;7.000;2024-01-11T15:48:55;-0.20;99.90
47616;DHT22;69146;52.266;7.000;2024-01-11T15:51:39;-0.20;99.90
47616;DHT22;69146;52.266;7.000;2024-01-11T15:54:25;-0.30;99.90
47616;DHT22;69146;52.266;7.000;2024-01-11T15:57:10;-0.20;99.90
47616;DHT22;69146;52.266;7.000;2024-01-11T15:59:54;-0.20;99.90
47616;DHT22;69146;52.266;7.000;2024-01-11T16:02:39;-0.20;99.90
47616;DHT22;69146;52.266;7.000;2024-01-11T16:05:27;-0.30;99.90
47616;DHT22;69146;52.266;7.000;2024-01-11T16:08:12;-0.30;99.90
47616;DHT22;69146;52.266;7.000;2024-01-11T16:10:57;-0.30;99.90
47616;DHT22;69146;52.266;7.000;2024-01-11T16:13:42;-0.30;99.90
47616;DHT22;69146;52.266;7.000;2024-01-11T16:16:31;-0.30;99.90
47616;DHT22;69146;52.266;7.000;2024-01-11T16:19:15;-0.30;99.90
47616;DHT22;69146;52.266;7.000;2024-01-11T16:22:02;-0.30;99.90
47616;DHT22;69146;52.266;7.000;2024-01-11T16:24:47;-0.30;99.90
47616;DHT22;69146;52.266;7.000;2024-01-11T16:27:33;-0.30;99.90
47616;DHT22;69146;52.266;7.000;2024-01-11T16:30:18;-0.20;99.90
47616;DHT22;69146;52.266;7.000;2024-01-11T16:33:02;-0.20;99.90
47616;DHT22;69146;52.266;7.000;2024-01-11T16:35:47;-0.20;99.90
47616;DHT22;69146;52.266;7.000;2024-01-11T16:38:31;-0.20;99.90
47616;DHT22;69146;52.266;7.000;2024-01-11T16:41:16;-0.20;99.90
47616;DHT22;69146;52.266;7.000;2024-01-11T16:44:02;-0.20;99.90
47616;DHT22;69146;52.266;7.000;2024-01-11T16:46:48;-0.20;99.90
47616;DHT22;69146;52.266;7.000;2024-01-11T16:49:32;-0.20;99.90
47616;DHT22;69146;52.266;7.000;2024-01-11T16:52:17;-0.20;99.90
47616;DHT22;69146;52.266;7.000;2024-01-11T16:55:01;-0.20;99.90
47616;DHT22;69146;52.266;7.000;2024-01-11T16:57:46;-0.20;99.90
47616;DHT22;69146;52.266;7.000;2024-01-11T17:00:32;-0.10;99.90
47616;DHT22;69146;52.266;7.000;2024-01-11T17:03:16;-0.20;99.90
47616;DHT22;69146;52.266;7.000;2024-01-11T17:06:01;-0.20;99.90
47616;DHT22;69146;52.266;7.000;2024-01-11T17:08:46;-0.20;99.90
47616;DHT22;69146;52.266;7.000;2024-01-11T17:11:30;-0.10;99.90
47616;DHT22;69146;52.266;7.000;2024-01-11T17:14:16;-0.10;99.90
47616;DHT22;69146;52.266;7.000;2024-01-11T17:17:01;-0.10;99.90
47616;DHT22;69146;52.266;7.000;2024-01-11T17:19:48;-0.20;99.90
47616;DHT22;69146;52.266;7.000;2024-01-11T17:22:33;-0.10;99.90
47616;DHT22;69146;52.266;7.000;2024-01-11T17:25:18;-0.10;99.90
47616;DHT22;69146;52.266;7.000;2024-01-11T17:28:02;-0.10;99.90
47616;DHT22;69146;52.266;7.000;2024-01-11T17:30:47;-0.10;99.90